sensor_id;sensor_type;location;lat;lon;timestamp;temperature;humidity
46091;DHT22;31826;53.572;10.170;2024-01-16T00:00:17;-0.10;99.90
46091;DHT22;31826;53.572;10.170;2024-01-16T00:02:43;0.00;99.90
46091;DHT22;31826;53.572;10.170;2024-01-16T00:05:08;0.00;99.90
46091;DHT22;31826;53.572;10.170;2024-01-16T00:07:38;-0.10;99.90
46091;DHT22;31826;53.572;10.170;2024-01-16T00:10:04;-0.10;99.90
46091;DHT22;31826;53.572;10.170;2024-01-16T00:12:32;-0.10;99.90
46091;DHT22;31826;53.572;10.170;2024-01-16T00:14:58;0.00;99.90
46091;DHT22;31826;53.572;10.170;2024-01-16T00:17:23;-0.10;99.90
46091;DHT22;31826;53.572;10.170;2024-01-16T00:19:49;-0.10;99.90
46091;DHT22;31826;53.572;10.170;2024-01-16T00:22:15;0.00;99.90
46091;DHT22;31826;53.572;10.170;2024-01-16T00:24:40;0.00;99.90
46091;DHT22;31826;53.572;10.170;2024-01-16T00:27:06;0.00;99.90
46091;DHT22;31826;53.572;10.170;2024-01-16T00:29:32;-0.10;99.90
46091;DHT22;31826;53.572;10.170;2024-01-16T00:31:57;-0.10;99.90
46091;DHT22;31826;53.572;10.170;2024-01-16T00:34:23;-0.10;99.90
46091;DHT22;31826;53.572;10.170;2024-01-16T00:36:49;-0.10;99.90
46091;DHT22;31826;53.572;10.170;2024-01-16T00:39:14;-0.20;99.90
46091;DHT22;31826;53.572;10.170;2024-01-16T00:41:40;-0.20;99.90
46091;DHT22;31826;53.572;10.170;2024-01-16T00:44:06;-0.10;99.90
46091;DHT22;31826;53.572;10.170;2024-01-16T00:46:33;-0.10;99.90
46091;DHT22;31826;53.572;10.170;2024-01-16T00:48:58;-0.20;99.90
46091;DHT22;31826;53.572;10.170;2024-01-16T00:51:24;-0.20;99.90
46091;DHT22;31826;53.572;10.170;2024-01-16T00:53:51;-0.20;99.90
46091;DHT22;31826;53.572;10.170;2024-01-16T00:56:16;-0.20;99.90
46091;DHT22;31826;53.572;10.170;2024-01-16T00:58:42;-0.30;99.90
46091;DHT22;31826;53.572;10.170;2024-01-16T01:01:08;-0.20;99.90
46091;DHT22;31826;53.572;10.170;2024-01-16T01:03:33;-0.30;99.90
46091;DHT22;31826;53.572;10.170;2024-01-16T01:06:00;-0.20;99.90
46091;DHT22;31826;53.572;10.170;2024-01-16T01:08:25;-0.30;99.90
46091;DHT22;31826;53.572;10.170;2024-01-16T01:10:51;-0.30;99.90
46091;DHT22;31826;53.572;10.170;2024-01-16T01:13:17;-0.30;99.90
46091;DHT22;31826;53.572;10.170;2024-01-16T01:15:42;-0.20;99.90
46091;DHT22;31826;53.572;10.170;2024-01-16T01:18:08;-0.30;99.90
46091;DHT22;31826;53.572;10.170;2024-01-16T01:20:34;-0.40;99.90
46091;DHT22;31826;53.572;10.170;2024-01-16T01:23:00;-0.50;99.90
46091;DHT22;31826;53.572;10.170;2024-01-16T01:25:26;-0.50;99.90
46091;DHT22;31826;53.572;10.170;2024-01-16T01:27:52;-0.50;99.90
46091;DHT22;31826;53.572;10.170;2024-01-16T01:30:17;-0.50;99.90
46091;DHT22;31826;53.572;10.170;2024-01-16T01:32:43;-0.50;99.90
46091;DHT22;31826;53.572;10.170;2024-01-16T01:35:09;-0.50;99.90
46091;DHT22;31826;53.572;10.170;2024-01-16T01:37:37;-0.50;99.90
46091;DHT22;31826;53.572;10.170;2024-01-16T01:40:02;-0.60;99.90
46091;DHT22;31826;53.572;10.170;2024-01-16T01:42:28;-0.60;99.90
46091;DHT22;31826;53.572;10.170;2024-01-16T01:44:55;-0.60;99.90
46091;DHT22;31826;53.572;10.170;2024-01-16T01:47:20;-0.60;99.90
46091;DHT22;31826;53.572;10.170;2024-01-16T01:49:46;-0.60;99.90
46091;DHT22;31826;53.572;10.170;2024-01-16T01:52:12;-0.70;99.90
46091;DHT22;31826;53.572;10.170;2024-01-16T01:54:38;-0.70;99.90
46091;DHT22;31826;53.572;10.170;2024-01-16T01:57:05;-0.60;99.90
46091;DHT22;31826;53.572;10.170;2024-01-16T01:59:33;-0.60;99.90
46091;DHT22;31826;53.572;10.170;2024-01-16T02:01:58;-0.50;99.90
46091;DHT22;31826;53.572;10.170;2024-01-16T02:04:26;-0.50;99.90
46091;DHT22;31826;53.572;10.170;2024-01-16T02:06:53;-0.60;99.90
46091;DHT22;31826;53.572;10.170;2024-01-16T02:09:19;-0.50;99.90
46091;DHT22;31826;53.572;10.170;2024-01-16T02:11:45;-0.50;99.90
46091;DHT22;31826;53.572;10.170;2024-01-16T02:14:11;-0.50;99.90
46091;DHT22;31826;53.572;10.170;2024-01-16T02:16:39;-0.50;99.90
46091;DHT22;31826;53.572;10.170;2024-01-16T02:19:05;-0.40;99.90
46091;DHT22;31826;53.572;10.170;2024-01-16T02:21:41;-0.50;99.90
46091;DHT22;31826;53.572;10.170;2024-01-16T02:24:10;-0.60;99.90
46091;DHT22;31826;53.572;10.170;2024-01-16T02:26:37;-0.60;99.90
46091;DHT22;31826;53.572;10.170;2024-01-16T02:29:03;-0.60;99.90
46091;DHT22;31826;53.572;10.170;2024-01-16T02:31:33;-0.70;99.90
46091;DHT22;31826;53.572;10.170;2024-01-16T02:33:59;-0.60;99.90
46091;DHT22;31826;53.572;10.170;2024-01-16T02:36:25;-0.70;99.90
46091;DHT22;31826;53.572;10.170;2024-01-16T02:38:51;-0.70;99.90
46091;DHT22;31826;53.572;10.170;2024-01-16T02:41:18;-0.70;99.90
46091;DHT22;31826;53.572;10.170;2024-01-16T02:43:44;-0.70;99.90
46091;DHT22;31826;53.572;10.170;2024-01-16T02:46:09;-0.70;99.90
46091;DHT22;31826;53.572;10.170;2024-01-16T02:48:36;-0.70;99.90
46091;DHT22;31826;53.572;10.170;2024-01-16T02:51:02;-0.70;99.90
46091;DHT22;31826;53.572;10.170;2024-01-16T02:53:32;-0.80;99.90
46091;DHT22;31826;53.572;10.170;2024-01-16T02:55:57;-0.80;99.90
46091;DHT22;31826;53.572;10.170;2024-01-16T02:58:30;-0.90;99.90
46091;DHT22;31826;53.572;10.170;2024-01-16T03:00:58;-0.90;99.90
46091;DHT22;31826;53.572;10.170;2024-01-16T03:03:24;-0.90;99.90
46091;DHT22;31826;53.572;10.170;2024-01-16T03:05:50;-0.90;99.90
46091;DHT22;31826;53.572;10.170;2024-01-16T03:08:16;-0.90;99.90
46091;DHT22;31826;53.572;10.170;2024-01-16T03:10:41;-0.90;99.90
46091;DHT22;31826;53.572;10.170;2024-01-16T03:13:08;-1.00;99.90
46091;DHT22;31826;53.572;10.170;2024-01-16T03:15:33;-1.10;99.90
46091;DHT22;31826;53.572;10.170;2024-01-16T03:18:00;-1.00;99.90
46091;DHT22;31826;53.572;10.170;2024-01-16T03:20:29;-1.00;99.90
46091;DHT22;31826;53.572;10.170;2024-01-16T03:22:55;-1.10;99.90
46091;DHT22;31826;53.572;10.170;2024-01-16T03:25:21;-1.10;99.90
46091;DHT22;31826;53.572;10.170;2024-01-16T03:27:47;-1.10;99.90
46091;DHT22;31826;53.572;10.170;2024-01-16T03:30:13;-1.10;99.90
46091;DHT22;31826;53.572;10.170;2024-01-16T03:32:39;-1.10;99.90
46091;DHT22;31826;53.572;10.170;2024-01-16T03:35:05;-1.20;99.90
46091;DHT22;31826;53.572;10.170;2024-01-16T03:37:31;-1.10;99.90
46091;DHT22;31826;53.572;10.170;2024-01-16T03:39:57;-1.10;99.90
46091;DHT22;31826;53.572;10.170;2024-01-16T03:42:23;-1.10;99.90
46091;DHT22;31826;53.572;10.170;2024-01-16T03:44:49;-1.00;99.90
46091;DHT22;31826;53.572;10.170;2024-01-16T03:47:15;-1.00;99.90
46091;DHT22;31826;53.572;10.170;2024-01-16T03:49:41;-1.10;99.90
46091;DHT22;31826;53.572;10.170;2024-01-16T03:52:07;-1.10;99.90
46091;DHT22;31826;53.572;10.170;2024-01-16T03:54:33;-1.10;99.90
46091;DHT22;31826;53.572;10.170;2024-01-16T03:56:58;-1.10;99.90
46091;DHT22;31826;53.572;10.170;2024-01-16T03:59:24;-1.00;99.90
46091;DHT22;31826;53.572;10.170;2024-01-16T04:01:50;-1.00;99.90
46091;DHT22;31826;53.572;10.170;2024-01-16T04:04:16;-1.00;99.90
46091;DHT22;31826;53.572;10.170;2024-01-16T04:06:42;-1.10;99.90
46091;DHT22;31826;53.572;10.170;2024-01-16T04:09:08;-1.10;99.90
46091;DHT22;31826;53.572;10.170;2024-01-16T04:11:35;-1.00;99.90
46091;DHT22;31826;53.572;10.170;2024-01-16T04:14:00;-1.00;99.90
46091;DHT22;31826;53.572;10.170;2024-01-16T04:16:27;-1.10;99.90
46091;DHT22;31826;53.572;10.170;2024-01-16T04:18:52;-1.10;99.90
46091;DHT22;31826;53.572;10.170;2024-01-16T04:21:18;-1.10;99.90
46091;DHT22;31826;53.572;10.170;2024-01-16T04:23:44;-1.20;99.90
46091;DHT22;31826;53.572;10.170;2024-01-16T04:26:10;-1.30;99.90
46091;DHT22;31826;53.572;10.170;2024-01-16T04:28:36;-1.30;99.90
46091;DHT22;31826;53.572;10.170;2024-01-16T04:31:05;-1.20;99.90
46091;DHT22;31826;53.572;10.170;2024-01-16T04:33:31;-1.20;99.90
46091;DHT22;31826;53.572;10.170;2024-01-16T04:35:56;-1.20;99.90
46091;DHT22;31826;53.572;10.170;2024-01-16T04:38:22;-1.20;99.90
46091;DHT22;31826;53.572;10.170;2024-01-16T04:40:49;-1.20;99.90
46091;DHT22;31826;53.572;10.170;2024-01-16T04:43:15;-1.10;99.90
46091;DHT22;31826;53.572;10.170;2024-01-16T04:45:40;-1.10;99.90
46091;DHT22;31826;53.572;10.170;2024-01-16T04:48:06;-1.00;99.90
46091;DHT22;31826;53.572;10.170;2024-01-16T04:50:34;-1.10;99.90
46091;DHT22;31826;53.572;10.170;2024-01-16T04:53:00;-1.00;99.90
46091;DHT22;31826;53.572;10.170;2024-01-16T04:55:29;-1.10;99.90
46091;DHT22;31826;53.572;10.170;2024-01-16T04:57:55;-1.00;99.90
46091;DHT22;31826;53.572;10.170;2024-01-16T05:00:21;-0.90;99.90
46091;DHT22;31826;53.572;10.170;2024-01-16T05:02:47;-1.00;99.90
46091;DHT22;31826;53.572;10.170;2024-01-16T05:05:13;-0.90;99.90
46091;DHT22;31826;53.572;10.170;2024-01-16T05:07:40;-0.90;99.90
46091;DHT22;31826;53.572;10.170;2024-01-16T05:10:06;-0.90;99.90
46091;DHT22;31826;53.572;10.170;2024-01-16T05:12:32;-1.00;99.90
46091;DHT22;31826;53.572;10.170;2024-01-16T05:14:58;-0.90;99.90
46091;DHT22;31826;53.572;10.170;2024-01-16T05:17:24;-1.00;99.90
46091;DHT22;31826;53.572;10.170;2024-01-16T05:19:49;-1.00;99.90
46091;DHT22;31826;53.572;10.170;2024-01-16T05:22:15;-1.00;99.90
46091;DHT22;31826;53.572;10.170;2024-01-16T05:24:41;-1.00;99.90
46091;DHT22;31826;53.572;10.170;2024-01-16T05:27:07;-1.10;99.90
46091;DHT22;31826;53.572;10.170;2024-01-16T05:29:32;-1.00;99.90
46091;DHT22;31826;53.572;10.170;2024-01-16T05:31:58;-1.00;99.90
46091;DHT22;31826;53.572;10.170;2024-01-16T05:34:24;-1.00;99.90
46091;DHT22;31826;53.572;10.170;2024-01-16T05:36:50;-1.10;99.90
46091;DHT22;31826;53.572;10.170;2024-01-16T05:39:15;-0.90;99.90
46091;DHT22;31826;53.572;10.170;2024-01-16T05:41:42;-0.90;99.90
46091;DHT22;31826;53.572;10.170;2024-01-16T05:44:08;-0.90;99.90
46091;DHT22;31826;53.572;10.170;2024-01-16T05:46:34;-1.00;99.90
46091;DHT22;31826;53.572;10.170;2024-01-16T05:48:59;-0.90;99.90
46091;DHT22;31826;53.572;10.170;2024-01-16T05:51:27;-0.90;99.90
46091;DHT22;31826;53.572;10.170;2024-01-16T05:53:56;-0.90;99.90
46091;DHT22;31826;53.572;10.170;2024-01-16T05:56:21;-0.80;99.90
46091;DHT22;31826;53.572;10.170;2024-01-16T05:58:47;-0.70;99.90
46091;DHT22;31826;53.572;10.170;2024-01-16T06:01:13;-0.70;99.90
46091;DHT22;31826;53.572;10.170;2024-01-16T06:03:39;-0.70;99.90
46091;DHT22;31826;53.572;10.170;2024-01-16T06:06:06;-0.60;99.90
46091;DHT22;31826;53.572;10.170;2024-01-16T06:08:33;-0.70;99.90
46091;DHT22;31826;53.572;10.170;2024-01-16T06:10:58;-0.70;99.90
46091;DHT22;31826;53.572;10.170;2024-01-16T06:13:24;-0.60;99.90
46091;DHT22;31826;53.572;10.170;2024-01-16T06:15:50;-0.70;99.90
46091;DHT22;31826;53.572;10.170;2024-01-16T06:18:15;-0.60;99.90
46091;DHT22;31826;53.572;10.170;2024-01-16T06:20:41;-0.70;99.90
46091;DHT22;31826;53.572;10.170;2024-01-16T06:23:07;-0.70;99.90
46091;DHT22;31826;53.572;10.170;2024-01-16T06:25:32;-0.60;99.90
46091;DHT22;31826;53.572;10.170;2024-01-16T06:27:58;-0.60;99.90
46091;DHT22;31826;53.572;10.170;2024-01-16T06:30:24;-0.50;99.90
46091;DHT22;31826;53.572;10.170;2024-01-16T06:32:50;-0.60;99.90
46091;DHT22;31826;53.572;10.170;2024-01-16T06:35:16;-0.60;99.90
46091;DHT22;31826;53.572;10.170;2024-01-16T06:37:42;-0.70;99.90
46091;DHT22;31826;53.572;10.170;2024-01-16T06:40:09;-0.60;99.90
46091;DHT22;31826;53.572;10.170;2024-01-16T06:42:35;-0.60;99.90
46091;DHT22;31826;53.572;10.170;2024-01-16T06:45:03;-0.50;99.90
46091;DHT22;31826;53.572;10.170;2024-01-16T06:47:29;-0.50;99.90
46091;DHT22;31826;53.572;10.170;2024-01-16T06:49:55;-0.60;99.90
46091;DHT22;31826;53.572;10.170;2024-01-16T06:52:21;-0.50;99.90
46091;DHT22;31826;53.572;10.170;2024-01-16T06:54:46;-0.40;99.90
46091;DHT22;31826;53.572;10.170;2024-01-16T06:57:12;-0.50;99.90
46091;DHT22;31826;53.572;10.170;2024-01-16T06:59:38;-0.40;99.90
46091;DHT22;31826;53.572;10.170;2024-01-16T07:02:03;-0.40;99.90
46091;DHT22;31826;53.572;10.170;2024-01-16T07:04:29;-0.40;99.90
46091;DHT22;31826;53.572;10.170;2024-01-16T07:06:55;-0.40;99.90
46091;DHT22;31826;53.572;10.170;2024-01-16T07:09:21;-0.40;99.90
46091;DHT22;31826;53.572;10.170;2024-01-16T07:11:47;-0.30;99.90
46091;DHT22;31826;53.572;10.170;2024-01-16T07:14:13;-0.40;99.90
46091;DHT22;31826;53.572;10.170;2024-01-16T07:16:39;-0.40;99.90
46091;DHT22;31826;53.572;10.170;2024-01-16T07:19:05;-0.40;99.90
46091;DHT22;31826;53.572;10.170;2024-01-16T07:21:31;-0.30;99.90
46091;DHT22;31826;53.572;10.170;2024-01-16T07:23:57;-0.40;99.90
46091;DHT22;31826;53.572;10.170;2024-01-16T07:26:24;-0.40;99.90
46091;DHT22;31826;53.572;10.170;2024-01-16T07:28:50;-0.40;99.90
46091;DHT22;31826;53.572;10.170;2024-01-16T07:31:15;-0.30;99.90
46091;DHT22;31826;53.572;10.170;2024-01-16T07:33:44;-0.40;99.90
46091;DHT22;31826;53.572;10.170;2024-01-16T07:36:12;-0.50;99.90
46091;DHT22;31826;53.572;10.170;2024-01-16T07:38:37;-0.40;99.90
46091;DHT22;31826;53.572;10.170;2024-01-16T07:41:04;-0.40;99.90
46091;DHT22;31826;53.572;10.170;2024-01-16T07:43:29;-0.40;99.90
46091;DHT22;31826;53.572;10.170;2024-01-16T07:45:55;-0.40;99.90
46091;DHT22;31826;53.572;10.170;2024-01-16T07:48:21;-0.30;99.90
46091;DHT22;31826;53.572;10.170;2024-01-16T07:50:48;-0.40;99.90
46091;DHT22;31826;53.572;10.170;2024-01-16T07:53:14;-0.40;99.90
46091;DHT22;31826;53.572;10.170;2024-01-16T07:55:44;-0.40;99.90
46091;DHT22;31826;53.572;10.170;2024-01-16T07:58:13;-0.30;99.90
46091;DHT22;31826;53.572;10.170;2024-01-16T08:00:39;-0.30;99.90
46091;DHT22;31826;53.572;10.170;2024-01-16T08:03:07;-0.30;99.90
46091;DHT22;31826;53.572;10.170;2024-01-16T08:05:34;-0.30;99.90
46091;DHT22;31826;53.572;10.170;2024-01-16T08:07:59;-0.30;99.90
46091;DHT22;31826;53.572;10.170;2024-01-16T08:10:25;-0.40;99.90
46091;DHT22;31826;53.572;10.170;2024-01-16T08:12:51;-0.30;99.90
46091;DHT22;31826;53.572;10.170;2024-01-16T08:15:16;-0.30;99.90
46091;DHT22;31826;53.572;10.170;2024-01-16T08:17:42;-0.30;99.90
46091;DHT22;31826;53.572;10.170;2024-01-16T08:20:09;-0.30;99.90
46091;DHT22;31826;53.572;10.170;2024-01-16T08:22:38;-0.30;99.90
46091;DHT22;31826;53.572;10.170;2024-01-16T08:25:04;-0.20;99.90
46091;DHT22;31826;53.572;10.170;2024-01-16T08:27:34;-0.30;99.90
46091;DHT22;31826;53.572;10.170;2024-01-16T08:29:59;-0.30;99.90
46091;DHT22;31826;53.572;10.170;2024-01-16T08:32:26;-0.20;99.90
46091;DHT22;31826;53.572;10.170;2024-01-16T08:34:52;-0.20;99.90
46091;DHT22;31826;53.572;10.170;2024-01-16T08:37:17;-0.20;99.90
46091;DHT22;31826;53.572;10.170;2024-01-16T08:39:43;-0.10;99.90
46091;DHT22;31826;53.572;10.170;2024-01-16T08:42:09;-0.20;99.90
46091;DHT22;31826;53.572;10.170;2024-01-16T08:44:38;-0.10;99.90
46091;DHT22;31826;53.572;10.170;2024-01-16T08:47:04;-0.10;99.90
46091;DHT22;31826;53.572;10.170;2024-01-16T08:49:32;-0.10;99.90
46091;DHT22;31826;53.572;10.170;2024-01-16T08:51:58;-0.10;99.90
46091;DHT22;31826;53.572;10.170;2024-01-16T08:54:24;-0.10;99.90
46091;DHT22;31826;53.572;10.170;2024-01-16T08:56:51;0.00;99.90
46091;DHT22;31826;53.572;10.170;2024-01-16T08:59:17;0.00;99.90
46091;DHT22;31826;53.572;10.170;2024-01-16T09:01:43;-0.10;99.90
46091;DHT22;31826;53.572;10.170;2024-01-16T09:04:08;-0.10;99.90
46091;DHT22;31826;53.572;10.170;2024-01-16T09:06:34;-0.10;99.90
46091;DHT22;31826;53.572;10.170;2024-01-16T09:09:00;-0.10;99.90
46091;DHT22;31826;53.572;10.170;2024-01-16T09:11:26;-0.10;99.90
46091;DHT22;31826;53.572;10.170;2024-01-16T09:13:51;-0.10;99.90
46091;DHT22;31826;53.572;10.170;2024-01-16T09:16:17;-0.20;99.90
46091;DHT22;31826;53.572;10.170;2024-01-16T09:18:43;-0.10;99.90
46091;DHT22;31826;53.572;10.170;2024-01-16T09:21:09;-0.10;99.90
46091;DHT22;31826;53.572;10.170;2024-01-16T09:23:35;-0.10;99.90
46091;DHT22;31826;53.572;10.170;2024-01-16T09:26:01;0.00;99.90
46091;DHT22;31826;53.572;10.170;2024-01-16T09:28:26;0.10;99.90
46091;DHT22;31826;53.572;10.170;2024-01-16T09:30:54;0.00;99.90
46091;DHT22;31826;53.572;10.170;2024-01-16T09:33:22;0.00;99.90
46091;DHT22;31826;53.572;10.170;2024-01-16T09:35:48;-0.10;99.90
46091;DHT22;31826;53.572;10.170;2024-01-16T09:38:14;0.00;99.90
46091;DHT22;31826;53.572;10.170;2024-01-16T09:40:39;0.00;99.90
46091;DHT22;31826;53.572;10.170;2024-01-16T09:43:06;0.00;99.90
46091;DHT22;31826;53.572;10.170;2024-01-16T09:45:37;0.00;99.90
46091;DHT22;31826;53.572;10.170;2024-01-16T09:48:05;0.00;99.90
46091;DHT22;31826;53.572;10.170;2024-01-16T09:50:31;0.10;99.90
46091;DHT22;31826;53.572;10.170;2024-01-16T09:52:56;0.10;99.90
46091;DHT22;31826;53.572;10.170;2024-01-16T09:55:22;0.20;99.90
46091;DHT22;31826;53.572;10.170;2024-01-16T09:57:52;0.10;99.90
46091;DHT22;31826;53.572;10.170;2024-01-16T10:00:19;0.20;99.90
46091;DHT22;31826;53.572;10.170;2024-01-16T10:02:45;0.30;99.90
46091;DHT22;31826;53.572;10.170;2024-01-16T10:05:12;0.30;99.90
46091;DHT22;31826;53.572;10.170;2024-01-16T10:07:40;0.30;99.90
46091;DHT22;31826;53.572;10.170;2024-01-16T10:10:06;0.30;99.90
46091;DHT22;31826;53.572;10.170;2024-01-16T10:12:33;0.30;99.90
46091;DHT22;31826;53.572;10.170;2024-01-16T10:14:59;0.30;99.90
46091;DHT22;31826;53.572;10.170;2024-01-16T10:17:43;0.40;99.90
46091;DHT22;31826;53.572;10.170;2024-01-16T10:20:10;0.40;99.90
46091;DHT22;31826;53.572;10.170;2024-01-16T10:22:39;0.40;99.90
46091;DHT22;31826;53.572;10.170;2024-01-16T10:25:10;0.40;99.90
46091;DHT22;31826;53.572;10.170;2024-01-16T10:27:42;0.50;99.90
46091;DHT22;31826;53.572;10.170;2024-01-16T10:30:08;0.50;99.90
46091;DHT22;31826;53.572;10.170;2024-01-16T10:32:44;0.50;99.90
46091;DHT22;31826;53.572;10.170;2024-01-16T10:35:11;0.60;99.90
46091;DHT22;31826;53.572;10.170;2024-01-16T10:37:51;0.50;99.90
46091;DHT22;31826;53.572;10.170;2024-01-16T10:40:21;0.50;99.90
46091;DHT22;31826;53.572;10.170;2024-01-16T10:45:24;0.50;99.90
46091;DHT22;31826;53.572;10.170;2024-01-16T10:48:00;0.60;99.90
46091;DHT22;31826;53.572;10.170;2024-01-16T10:50:27;0.70;99.90
46091;DHT22;31826;53.572;10.170;2024-01-16T10:52:54;0.70;99.90
46091;DHT22;31826;53.572;10.170;2024-01-16T10:55:23;0.70;99.90
46091;DHT22;31826;53.572;10.170;2024-01-16T10:57:50;0.70;99.90
46091;DHT22;31826;53.572;10.170;2024-01-16T11:00:20;0.80;99.90
46091;DHT22;31826;53.572;10.170;2024-01-16T11:03:04;0.70;99.90
46091;DHT22;31826;53.572;10.170;2024-01-16T11:05:32;0.70;99.90
46091;DHT22;31826;53.572;10.170;2024-01-16T11:08:01;0.70;99.90
46091;DHT22;31826;53.572;10.170;2024-01-16T11:10:31;0.70;99.90
46091;DHT22;31826;53.572;10.170;2024-01-16T11:13:00;0.80;99.90
46091;DHT22;31826;53.572;10.170;2024-01-16T11:15:27;0.90;99.90
46091;DHT22;31826;53.572;10.170;2024-01-16T11:17:55;0.80;99.90
46091;DHT22;31826;53.572;10.170;2024-01-16T11:20:21;0.90;99.90
46091;DHT22;31826;53.572;10.170;2024-01-16T11:22:49;1.00;99.90
46091;DHT22;31826;53.572;10.170;2024-01-16T11:25:17;0.90;99.90
46091;DHT22;31826;53.572;10.170;2024-01-16T11:27:46;1.00;99.90
46091;DHT22;31826;53.572;10.170;2024-01-16T11:30:29;1.00;99.90
46091;DHT22;31826;53.572;10.170;2024-01-16T11:32:55;1.00;99.90
46091;DHT22;31826;53.572;10.170;2024-01-16T11:35:41;0.90;99.90
46091;DHT22;31826;53.572;10.170;2024-01-16T11:38:10;0.90;99.90
46091;DHT22;31826;53.572;10.170;2024-01-16T11:40:39;1.00;99.90
46091;DHT22;31826;53.572;10.170;2024-01-16T11:46:03;1.00;99.90
46091;DHT22;31826;53.572;10.170;2024-01-16T11:48:29;1.00;99.90
46091;DHT22;31826;53.572;10.170;2024-01-16T11:50:55;1.20;99.90
46091;DHT22;31826;53.572;10.170;2024-01-16T11:53:37;1.20;99.90
46091;DHT22;31826;53.572;10.170;2024-01-16T12:01:19;1.20;99.90
46091;DHT22;31826;53.572;10.170;2024-01-16T12:03:46;1.10;99.90
46091;DHT22;31826;53.572;10.170;2024-01-16T12:06:16;1.10;99.90
46091;DHT22;31826;53.572;10.170;2024-01-16T12:08:41;1.10;99.90
46091;DHT22;31826;53.572;10.170;2024-01-16T12:11:07;1.10;99.90
46091;DHT22;31826;53.572;10.170;2024-01-16T12:13:33;1.10;99.90
46091;DHT22;31826;53.572;10.170;2024-01-16T12:16:02;1.10;99.90
46091;DHT22;31826;53.572;10.170;2024-01-16T12:18:29;1.10;99.90
46091;DHT22;31826;53.572;10.170;2024-01-16T12:20:55;1.00;99.90
46091;DHT22;31826;53.572;10.170;2024-01-16T12:23:21;1.00;99.90
46091;DHT22;31826;53.572;10.170;2024-01-16T12:25:52;1.10;99.90
46091;DHT22;31826;53.572;10.170;2024-01-16T12:28:21;1.00;99.90
46091;DHT22;31826;53.572;10.170;2024-01-16T12:30:50;1.10;99.90
46091;DHT22;31826;53.572;10.170;2024-01-16T12:33:22;1.10;99.90
46091;DHT22;31826;53.572;10.170;2024-01-16T12:35:48;1.10;99.90
46091;DHT22;31826;53.572;10.170;2024-01-16T12:38:15;1.20;99.90
46091;DHT22;31826;53.572;10.170;2024-01-16T12:40:47;1.10;99.90
46091;DHT22;31826;53.572;10.170;2024-01-16T12:43:14;1.20;99.90
46091;DHT22;31826;53.572;10.170;2024-01-16T12:45:41;1.20;99.90
46091;DHT22;31826;53.572;10.170;2024-01-16T12:48:07;1.10;99.90
46091;DHT22;31826;53.572;10.170;2024-01-16T12:50:33;1.10;99.90
46091;DHT22;31826;53.572;10.170;2024-01-16T12:55:34;1.20;99.90
46091;DHT22;31826;53.572;10.170;2024-01-16T13:00:48;1.20;99.90
46091;DHT22;31826;53.572;10.170;2024-01-16T13:03:24;1.10;99.90
46091;DHT22;31826;53.572;10.170;2024-01-16T13:05:59;1.10;99.90
46091;DHT22;31826;53.572;10.170;2024-01-16T13:08:26;1.10;99.90
46091;DHT22;31826;53.572;10.170;2024-01-16T13:11:08;1.10;99.90
46091;DHT22;31826;53.572;10.170;2024-01-16T13:13:37;1.10;99.90
46091;DHT22;31826;53.572;10.170;2024-01-16T13:16:05;1.10;99.90
46091;DHT22;31826;53.572;10.170;2024-01-16T13:18:32;1.10;99.90
46091;DHT22;31826;53.572;10.170;2024-01-16T13:20:58;1.10;99.90
46091;DHT22;31826;53.572;10.170;2024-01-16T13:23:25;1.00;99.90
46091;DHT22;31826;53.572;10.170;2024-01-16T13:25:51;0.90;99.90
46091;DHT22;31826;53.572;10.170;2024-01-16T13:28:18;1.10;99.90
46091;DHT22;31826;53.572;10.170;2024-01-16T13:30:45;1.00;99.90
46091;DHT22;31826;53.572;10.170;2024-01-16T13:33:11;1.00;99.90
46091;DHT22;31826;53.572;10.170;2024-01-16T13:35:40;1.00;99.90
46091;DHT22;31826;53.572;10.170;2024-01-16T13:38:06;1.00;99.90
46091;DHT22;31826;53.572;10.170;2024-01-16T13:40:32;0.90;99.90
46091;DHT22;31826;53.572;10.170;2024-01-16T13:42:59;1.00;99.90
46091;DHT22;31826;53.572;10.170;2024-01-16T13:45:26;0.90;99.90
46091;DHT22;31826;53.572;10.170;2024-01-16T13:47:52;0.90;99.90
46091;DHT22;31826;53.572;10.170;2024-01-16T13:50:17;0.90;99.90
46091;DHT22;31826;53.572;10.170;2024-01-16T13:52:43;1.00;99.90
46091;DHT22;31826;53.572;10.170;2024-01-16T13:55:10;1.00;99.90
46091;DHT22;31826;53.572;10.170;2024-01-16T13:57:37;0.90;99.90
46091;DHT22;31826;53.572;10.170;2024-01-16T14:00:12;0.90;99.90
46091;DHT22;31826;53.572;10.170;2024-01-16T14:02:45;0.90;99.90
46091;DHT22;31826;53.572;10.170;2024-01-16T14:05:13;0.80;99.90
46091;DHT22;31826;53.572;10.170;2024-01-16T14:07:44;0.90;99.90
46091;DHT22;31826;53.572;10.170;2024-01-16T14:10:14;0.90;99.90
46091;DHT22;31826;53.572;10.170;2024-01-16T14:12:45;0.90;99.90
46091;DHT22;31826;53.572;10.170;2024-01-16T14:15:12;0.90;99.90
46091;DHT22;31826;53.572;10.170;2024-01-16T14:17:50;0.90;99.90
46091;DHT22;31826;53.572;10.170;2024-01-16T14:20:18;0.90;99.90
46091;DHT22;31826;53.572;10.170;2024-01-16T14:22:47;0.90;99.90
46091;DHT22;31826;53.572;10.170;2024-01-16T14:25:13;0.90;99.90
46091;DHT22;31826;53.572;10.170;2024-01-16T14:30:26;0.80;99.90
46091;DHT22;31826;53.572;10.170;2024-01-16T14:32:52;0.90;99.90
46091;DHT22;31826;53.572;10.170;2024-01-16T14:35:19;0.90;99.90
46091;DHT22;31826;53.572;10.170;2024-01-16T14:37:45;0.90;99.90
46091;DHT22;31826;53.572;10.170;2024-01-16T14:40:11;0.80;99.90
46091;DHT22;31826;53.572;10.170;2024-01-16T14:42:46;0.80;99.90
46091;DHT22;31826;53.572;10.170;2024-01-16T14:45:14;0.80;99.90
46091;DHT22;31826;53.572;10.170;2024-01-16T14:47:40;0.90;99.90
46091;DHT22;31826;53.572;10.170;2024-01-16T14:50:07;0.90;99.90
46091;DHT22;31826;53.572;10.170;2024-01-16T14:52:33;0.80;99.90
46091;DHT22;31826;53.572;10.170;2024-01-16T14:55:00;0.80;99.90
46091;DHT22;31826;53.572;10.170;2024-01-16T14:57:26;0.80;99.90
46091;DHT22;31826;53.572;10.170;2024-01-16T14:59:53;0.80;99.90
46091;DHT22;31826;53.572;10.170;2024-01-16T15:02:18;0.80;99.90
46091;DHT22;31826;53.572;10.170;2024-01-16T15:04:46;0.70;99.90
46091;DHT22;31826;53.572;10.170;2024-01-16T15:07:16;0.80;99.90
46091;DHT22;31826;53.572;10.170;2024-01-16T15:09:42;0.80;99.90
46091;DHT22;31826;53.572;10.170;2024-01-16T15:12:08;0.80;99.90
46091;DHT22;31826;53.572;10.170;2024-01-16T15:14:34;0.80;99.90
46091;DHT22;31826;53.572;10.170;2024-01-16T15:17:01;0.80;99.90
46091;DHT22;31826;53.572;10.170;2024-01-16T15:19:27;0.80;99.90
46091;DHT22;31826;53.572;10.170;2024-01-16T15:21:53;0.80;99.90
46091;DHT22;31826;53.572;10.170;2024-01-16T15:24:18;0.70;99.90
46091;DHT22;31826;53.572;10.170;2024-01-16T15:26:56;0.80;99.90
46091;DHT22;31826;53.572;10.170;2024-01-16T15:29:23;0.80;99.90
46091;DHT22;31826;53.572;10.170;2024-01-16T15:31:48;0.80;99.90
46091;DHT22;31826;53.572;10.170;2024-01-16T15:34:14;0.70;99.90
46091;DHT22;31826;53.572;10.170;2024-01-16T15:36:40;0.70;99.90
46091;DHT22;31826;53.572;10.170;2024-01-16T15:39:06;0.80;99.90